sensor_id;sensor_type;location;lat;lon;timestamp;P1;durP1;ratioP1;P2;durP2;ratioP2
16440;SDS011;8330;-33.858;151.184;2024-03-06T00:01:48;3.72;;;1.45;;
16440;SDS011;8330;-33.858;151.184;2024-03-06T00:04:19;5.72;;;1.48;;
16440;SDS011;8330;-33.858;151.184;2024-03-06T00:06:50;5.60;;;1.67;;
16440;SDS011;8330;-33.858;151.184;2024-03-06T00:09:21;3.15;;;1.40;;
16440;SDS011;8330;-33.858;151.184;2024-03-06T00:11:53;4.18;;;1.38;;
16440;SDS011;8330;-33.858;151.184;2024-03-06T00:14:26;3.88;;;1.58;;
16440;SDS011;8330;-33.858;151.184;2024-03-06T00:16:57;4.13;;;1.45;;
16440;SDS011;8330;-33.858;151.184;2024-03-06T00:19:30;7.10;;;1.75;;
16440;SDS011;8330;-33.858;151.184;2024-03-06T00:22:01;3.05;;;1.45;;
16440;SDS011;8330;-33.858;151.184;2024-03-06T00:24:32;4.40;;;1.40;;
16440;SDS011;8330;-33.858;151.184;2024-03-06T00:27:03;3.95;;;1.38;;
16440;SDS011;8330;-33.858;151.184;2024-03-06T00:29:37;3.17;;;1.52;;
16440;SDS011;8330;-33.858;151.184;2024-03-06T00:32:08;5.00;;;1.30;;
16440;SDS011;8330;-33.858;151.184;2024-03-06T00:34:39;5.80;;;1.63;;
16440;SDS011;8330;-33.858;151.184;2024-03-06T00:37:10;5.07;;;1.70;;
16440;SDS011;8330;-33.858;151.184;2024-03-06T00:39:41;4.25;;;1.45;;
16440;SDS011;8330;-33.858;151.184;2024-03-06T00:42:13;4.60;;;1.67;;
16440;SDS011;8330;-33.858;151.184;2024-03-06T00:44:46;5.43;;;1.70;;
16440;SDS011;8330;-33.858;151.184;2024-03-06T00:47:17;6.50;;;1.90;;
16440;SDS011;8330;-33.858;151.184;2024-03-06T00:49:49;5.45;;;1.80;;
16440;SDS011;8330;-33.858;151.184;2024-03-06T00:52:22;10.13;;;2.30;;
16440;SDS011;8330;-33.858;151.184;2024-03-06T00:54:53;5.65;;;2.03;;
16440;SDS011;8330;-33.858;151.184;2024-03-06T00:57:24;6.75;;;2.03;;
16440;SDS011;8330;-33.858;151.184;2024-03-06T00:59:57;5.53;;;2.03;;
16440;SDS011;8330;-33.858;151.184;2024-03-06T01:02:32;7.57;;;2.25;;
16440;SDS011;8330;-33.858;151.184;2024-03-06T01:05:03;5.47;;;2.00;;
16440;SDS011;8330;-33.858;151.184;2024-03-06T01:07:36;6.78;;;1.85;;
16440;SDS011;8330;-33.858;151.184;2024-03-06T01:10:09;8.23;;;2.10;;
16440;SDS011;8330;-33.858;151.184;2024-03-06T01:12:40;6.95;;;2.20;;
16440;SDS011;8330;-33.858;151.184;2024-03-06T01:15:14;6.13;;;2.00;;
16440;SDS011;8330;-33.858;151.184;2024-03-06T01:17:45;6.03;;;1.73;;
16440;SDS011;8330;-33.858;151.184;2024-03-06T01:20:16;6.85;;;2.22;;
16440;SDS011;8330;-33.858;151.184;2024-03-06T01:22:47;5.18;;;2.08;;
16440;SDS011;8330;-33.858;151.184;2024-03-06T01:25:18;8.60;;;1.90;;
16440;SDS011;8330;-33.858;151.184;2024-03-06T01:27:50;5.35;;;2.00;;
16440;SDS011;8330;-33.858;151.184;2024-03-06T01:30:23;7.88;;;2.25;;
16440;SDS011;8330;-33.858;151.184;2024-03-06T01:32:54;6.03;;;2.00;;
16440;SDS011;8330;-33.858;151.184;2024-03-06T01:35:25;5.85;;;1.95;;
16440;SDS011;8330;-33.858;151.184;2024-03-06T01:37:56;7.47;;;1.92;;
16440;SDS011;8330;-33.858;151.184;2024-03-06T01:40:27;8.05;;;2.33;;
16440;SDS011;8330;-33.858;151.184;2024-03-06T01:42:58;8.52;;;2.28;;
16440;SDS011;8330;-33.858;151.184;2024-03-06T01:45:31;8.45;;;2.08;;
16440;SDS011;8330;-33.858;151.184;2024-03-06T01:48:03;8.57;;;2.55;;
16440;SDS011;8330;-33.858;151.184;2024-03-06T01:50:35;8.52;;;2.33;;
16440;SDS011;8330;-33.858;151.184;2024-03-06T01:53:06;4.97;;;1.90;;
16440;SDS011;8330;-33.858;151.184;2024-03-06T01:55:38;8.63;;;2.28;;
16440;SDS011;8330;-33.858;151.184;2024-03-06T01:58:09;10.93;;;2.38;;
16440;SDS011;8330;-33.858;151.184;2024-03-06T02:00:42;8.68;;;2.17;;
16440;SDS011;8330;-33.858;151.184;2024-03-06T02:03:14;7.97;;;2.60;;
16440;SDS011;8330;-33.858;151.184;2024-03-06T02:05:45;9.20;;;2.00;;
16440;SDS011;8330;-33.858;151.184;2024-03-06T02:08:17;9.10;;;2.10;;
16440;SDS011;8330;-33.858;151.184;2024-03-06T02:10:48;8.30;;;2.20;;
16440;SDS011;8330;-33.858;151.184;2024-03-06T02:13:20;6.95;;;1.85;;
16440;SDS011;8330;-33.858;151.184;2024-03-06T02:15:52;9.32;;;2.70;;
16440;SDS011;8330;-33.858;151.184;2024-03-06T02:18:24;7.55;;;2.47;;
16440;SDS011;8330;-33.858;151.184;2024-03-06T02:20:57;5.93;;;2.10;;
16440;SDS011;8330;-33.858;151.184;2024-03-06T02:23:31;7.43;;;2.47;;
16440;SDS011;8330;-33.858;151.184;2024-03-06T02:26:02;7.35;;;2.20;;
16440;SDS011;8330;-33.858;151.184;2024-03-06T02:28:33;7.22;;;2.30;;
16440;SDS011;8330;-33.858;151.184;2024-03-06T02:31:04;8.13;;;2.40;;
16440;SDS011;8330;-33.858;151.184;2024-03-06T02:33:35;9.00;;;2.35;;
16440;SDS011;8330;-33.858;151.184;2024-03-06T02:36:08;9.88;;;2.40;;
16440;SDS011;8330;-33.858;151.184;2024-03-06T02:38:40;9.48;;;2.00;;
16440;SDS011;8330;-33.858;151.184;2024-03-06T02:41:11;8.43;;;2.30;;
16440;SDS011;8330;-33.858;151.184;2024-03-06T02:43:42;7.53;;;2.17;;
16440;SDS011;8330;-33.858;151.184;2024-03-06T02:46:13;7.45;;;2.00;;
16440;SDS011;8330;-33.858;151.184;2024-03-06T02:48:44;9.10;;;2.55;;
16440;SDS011;8330;-33.858;151.184;2024-03-06T02:51:20;9.65;;;2.50;;
16440;SDS011;8330;-33.858;151.184;2024-03-06T02:53:51;7.32;;;2.13;;
16440;SDS011;8330;-33.858;151.184;2024-03-06T02:56:22;8.23;;;2.20;;
16440;SDS011;8330;-33.858;151.184;2024-03-06T02:58:53;11.57;;;2.63;;
16440;SDS011;8330;-33.858;151.184;2024-03-06T03:01:24;5.32;;;2.03;;
16440;SDS011;8330;-33.858;151.184;2024-03-06T03:03:55;7.55;;;2.20;;
16440;SDS011;8330;-33.858;151.184;2024-03-06T03:06:28;8.57;;;2.30;;
16440;SDS011;8330;-33.858;151.184;2024-03-06T03:08:59;9.77;;;2.78;;
16440;SDS011;8330;-33.858;151.184;2024-03-06T03:11:31;7.28;;;2.15;;
16440;SDS011;8330;-33.858;151.184;2024-03-06T03:14:02;7.50;;;2.10;;
16440;SDS011;8330;-33.858;151.184;2024-03-06T03:16:33;6.25;;;2.10;;
16440;SDS011;8330;-33.858;151.184;2024-03-06T03:19:04;3.55;;;1.88;;
16440;SDS011;8330;-33.858;151.184;2024-03-06T03:21:37;6.40;;;1.98;;
16440;SDS011;8330;-33.858;151.184;2024-03-06T03:24:10;7.60;;;2.03;;
16440;SDS011;8330;-33.858;151.184;2024-03-06T03:26:41;6.57;;;1.90;;
16440;SDS011;8330;-33.858;151.184;2024-03-06T03:29:12;6.90;;;2.35;;
16440;SDS011;8330;-33.858;151.184;2024-03-06T03:31:43;6.75;;;2.15;;
16440;SDS011;8330;-33.858;151.184;2024-03-06T03:34:14;6.75;;;2.20;;
16440;SDS011;8330;-33.858;151.184;2024-03-06T03:36:49;5.80;;;1.98;;
16440;SDS011;8330;-33.858;151.184;2024-03-06T03:39:20;5.82;;;2.35;;
16440;SDS011;8330;-33.858;151.184;2024-03-06T03:41:51;8.05;;;2.38;;
16440;SDS011;8330;-33.858;151.184;2024-03-06T03:44:22;5.93;;;2.08;;
16440;SDS011;8330;-33.858;151.184;2024-03-06T03:46:53;8.85;;;2.28;;
16440;SDS011;8330;-33.858;151.184;2024-03-06T03:49:24;4.97;;;1.90;;
16440;SDS011;8330;-33.858;151.184;2024-03-06T03:51:57;6.13;;;2.00;;
16440;SDS011;8330;-33.858;151.184;2024-03-06T03:54:28;7.15;;;2.15;;
16440;SDS011;8330;-33.858;151.184;2024-03-06T03:56:59;8.43;;;2.45;;
16440;SDS011;8330;-33.858;151.184;2024-03-06T03:59:30;6.25;;;2.00;;
16440;SDS011;8330;-33.858;151.184;2024-03-06T04:02:01;8.38;;;2.15;;
16440;SDS011;8330;-33.858;151.184;2024-03-06T04:04:32;5.32;;;2.00;;
16440;SDS011;8330;-33.858;151.184;2024-03-06T04:07:05;7.47;;;2.00;;
16440;SDS011;8330;-33.858;151.184;2024-03-06T04:09:36;3.70;;;1.73;;
16440;SDS011;8330;-33.858;151.184;2024-03-06T04:12:07;5.60;;;1.88;;
16440;SDS011;8330;-33.858;151.184;2024-03-06T04:14:39;4.93;;;2.00;;
16440;SDS011;8330;-33.858;151.184;2024-03-06T04:17:10;5.07;;;2.00;;
16440;SDS011;8330;-33.858;151.184;2024-03-06T04:19:41;9.57;;;2.55;;
16440;SDS011;8330;-33.858;151.184;2024-03-06T04:22:18;6.70;;;2.05;;
16440;SDS011;8330;-33.858;151.184;2024-03-06T04:24:49;5.35;;;2.00;;
16440;SDS011;8330;-33.858;151.184;2024-03-06T04:27:21;6.25;;;2.30;;
16440;SDS011;8330;-33.858;151.184;2024-03-06T04:29:52;8.25;;;2.38;;
16440;SDS011;8330;-33.858;151.184;2024-03-06T04:32:23;7.28;;;1.88;;
16440;SDS011;8330;-33.858;151.184;2024-03-06T04:34:54;7.40;;;2.28;;
16440;SDS011;8330;-33.858;151.184;2024-03-06T04:37:27;5.50;;;2.05;;
16440;SDS011;8330;-33.858;151.184;2024-03-06T04:39:59;11.85;;;2.42;;
16440;SDS011;8330;-33.858;151.184;2024-03-06T04:42:34;5.93;;;1.92;;
16440;SDS011;8330;-33.858;151.184;2024-03-06T04:45:09;4.32;;;2.13;;
16440;SDS011;8330;-33.858;151.184;2024-03-06T04:47:41;3.83;;;1.75;;
16440;SDS011;8330;-33.858;151.184;2024-03-06T04:50:12;6.55;;;1.77;;
16440;SDS011;8330;-33.858;151.184;2024-03-06T04:52:45;8.75;;;2.33;;
16440;SDS011;8330;-33.858;151.184;2024-03-06T04:55:16;5.30;;;2.13;;
16440;SDS011;8330;-33.858;151.184;2024-03-06T04:57:48;6.72;;;1.80;;
16440;SDS011;8330;-33.858;151.184;2024-03-06T05:00:21;6.32;;;1.98;;
16440;SDS011;8330;-33.858;151.184;2024-03-06T05:02:52;4.95;;;1.85;;
16440;SDS011;8330;-33.858;151.184;2024-03-06T05:05:24;6.13;;;1.90;;
16440;SDS011;8330;-33.858;151.184;2024-03-06T05:07:57;5.18;;;1.95;;
16440;SDS011;8330;-33.858;151.184;2024-03-06T05:10:28;6.85;;;2.00;;
16440;SDS011;8330;-33.858;151.184;2024-03-06T05:13:00;6.35;;;2.00;;
16440;SDS011;8330;-33.858;151.184;2024-03-06T05:15:31;10.23;;;2.13;;
16440;SDS011;8330;-33.858;151.184;2024-03-06T05:18:02;6.07;;;1.80;;
16440;SDS011;8330;-33.858;151.184;2024-03-06T05:20:34;5.07;;;1.63;;
16440;SDS011;8330;-33.858;151.184;2024-03-06T05:23:07;5.25;;;2.22;;
16440;SDS011;8330;-33.858;151.184;2024-03-06T05:25:38;8.30;;;1.92;;
16440;SDS011;8330;-33.858;151.184;2024-03-06T05:28:12;6.65;;;1.75;;
16440;SDS011;8330;-33.858;151.184;2024-03-06T05:30:43;7.78;;;2.05;;
16440;SDS011;8330;-33.858;151.184;2024-03-06T05:33:14;7.40;;;1.88;;
16440;SDS011;8330;-33.858;151.184;2024-03-06T05:35:45;6.38;;;2.00;;
16440;SDS011;8330;-33.858;151.184;2024-03-06T05:38:19;8.23;;;2.10;;
16440;SDS011;8330;-33.858;151.184;2024-03-06T05:40:50;13.38;;;2.08;;
16440;SDS011;8330;-33.858;151.184;2024-03-06T05:43:21;7.60;;;1.92;;
16440;SDS011;8330;-33.858;151.184;2024-03-06T05:45:52;6.82;;;1.92;;
16440;SDS011;8330;-33.858;151.184;2024-03-06T05:48:23;8.23;;;1.98;;
16440;SDS011;8330;-33.858;151.184;2024-03-06T05:50:57;7.55;;;2.03;;
16440;SDS011;8330;-33.858;151.184;2024-03-06T05:53:30;5.47;;;1.83;;
16440;SDS011;8330;-33.858;151.184;2024-03-06T05:56:08;7.95;;;1.98;;
16440;SDS011;8330;-33.858;151.184;2024-03-06T05:58:39;8.07;;;2.20;;
16440;SDS011;8330;-33.858;151.184;2024-03-06T06:01:13;9.80;;;2.00;;
16440;SDS011;8330;-33.858;151.184;2024-03-06T06:03:46;6.55;;;1.67;;
16440;SDS011;8330;-33.858;151.184;2024-03-06T06:06:17;10.05;;;2.15;;
16440;SDS011;8330;-33.858;151.184;2024-03-06T06:08:50;9.88;;;2.10;;
16440;SDS011;8330;-33.858;151.184;2024-03-06T06:11:22;7.03;;;1.92;;
16440;SDS011;8330;-33.858;151.184;2024-03-06T06:13:54;10.57;;;2.30;;
16440;SDS011;8330;-33.858;151.184;2024-03-06T06:16:25;7.47;;;1.90;;
16440;SDS011;8330;-33.858;151.184;2024-03-06T06:18:56;8.20;;;1.80;;
16440;SDS011;8330;-33.858;151.184;2024-03-06T06:21:27;7.78;;;2.17;;
16440;SDS011;8330;-33.858;151.184;2024-03-06T06:23:59;7.88;;;2.28;;
16440;SDS011;8330;-33.858;151.184;2024-03-06T06:26:31;7.70;;;1.63;;
16440;SDS011;8330;-33.858;151.184;2024-03-06T06:29:02;10.43;;;1.85;;
16440;SDS011;8330;-33.858;151.184;2024-03-06T06:31:34;8.25;;;1.90;;
16440;SDS011;8330;-33.858;151.184;2024-03-06T06:34:05;7.80;;;1.85;;
16440;SDS011;8330;-33.858;151.184;2024-03-06T06:36:36;7.18;;;1.83;;
16440;SDS011;8330;-33.858;151.184;2024-03-06T06:39:09;8.60;;;2.22;;
16440;SDS011;8330;-33.858;151.184;2024-03-06T06:41:40;6.93;;;1.95;;
16440;SDS011;8330;-33.858;151.184;2024-03-06T06:44:11;16.75;;;2.30;;
16440;SDS011;8330;-33.858;151.184;2024-03-06T06:46:42;7.03;;;1.90;;
16440;SDS011;8330;-33.858;151.184;2024-03-06T06:49:13;6.10;;;1.83;;
16440;SDS011;8330;-33.858;151.184;2024-03-06T06:51:45;10.13;;;1.98;;
16440;SDS011;8330;-33.858;151.184;2024-03-06T06:54:18;7.43;;;1.77;;
16440;SDS011;8330;-33.858;151.184;2024-03-06T06:56:49;11.88;;;2.38;;
16440;SDS011;8330;-33.858;151.184;2024-03-06T06:59:20;7.63;;;2.20;;
16440;SDS011;8330;-33.858;151.184;2024-03-06T07:01:51;11.40;;;2.10;;
16440;SDS011;8330;-33.858;151.184;2024-03-06T07:04:22;5.57;;;1.83;;
16440;SDS011;8330;-33.858;151.184;2024-03-06T07:06:53;6.55;;;1.92;;
16440;SDS011;8330;-33.858;151.184;2024-03-06T07:09:26;7.47;;;1.95;;
16440;SDS011;8330;-33.858;151.184;2024-03-06T07:11:57;8.98;;;2.33;;
16440;SDS011;8330;-33.858;151.184;2024-03-06T07:14:29;8.52;;;2.20;;
16440;SDS011;8330;-33.858;151.184;2024-03-06T07:17:00;8.52;;;1.77;;
16440;SDS011;8330;-33.858;151.184;2024-03-06T07:19:31;9.80;;;2.28;;
16440;SDS011;8330;-33.858;151.184;2024-03-06T07:22:02;8.07;;;2.05;;
16440;SDS011;8330;-33.858;151.184;2024-03-06T07:24:35;8.98;;;2.40;;
16440;SDS011;8330;-33.858;151.184;2024-03-06T07:27:06;10.13;;;2.08;;
16440;SDS011;8330;-33.858;151.184;2024-03-06T07:29:37;7.05;;;1.60;;
16440;SDS011;8330;-33.858;151.184;2024-03-06T07:32:08;6.95;;;2.17;;
16440;SDS011;8330;-33.858;151.184;2024-03-06T07:34:39;8.63;;;2.08;;
16440;SDS011;8330;-33.858;151.184;2024-03-06T07:37:10;8.88;;;2.60;;
16440;SDS011;8330;-33.858;151.184;2024-03-06T07:39:43;7.93;;;2.28;;
16440;SDS011;8330;-33.858;151.184;2024-03-06T07:42:14;9.77;;;2.30;;
16440;SDS011;8330;-33.858;151.184;2024-03-06T07:44:45;9.45;;;2.03;;
16440;SDS011;8330;-33.858;151.184;2024-03-06T07:47:16;10.43;;;2.10;;
16440;SDS011;8330;-33.858;151.184;2024-03-06T07:49:47;8.48;;;2.33;;
16440;SDS011;8330;-33.858;151.184;2024-03-06T07:52:19;9.25;;;2.20;;
16440;SDS011;8330;-33.858;151.184;2024-03-06T07:54:52;10.65;;;2.38;;
16440;SDS011;8330;-33.858;151.184;2024-03-06T07:57:24;10.23;;;2.30;;
16440;SDS011;8330;-33.858;151.184;2024-03-06T07:59:55;10.88;;;2.28;;
16440;SDS011;8330;-33.858;151.184;2024-03-06T08:02:26;10.27;;;2.00;;
16440;SDS011;8330;-33.858;151.184;2024-03-06T08:04:57;7.63;;;2.15;;
16440;SDS011;8330;-33.858;151.184;2024-03-06T08:07:28;12.35;;;2.50;;
16440;SDS011;8330;-33.858;151.184;2024-03-06T08:10:01;8.38;;;2.28;;
16440;SDS011;8330;-33.858;151.184;2024-03-06T08:12:33;11.75;;;2.45;;
16440;SDS011;8330;-33.858;151.184;2024-03-06T08:15:04;10.60;;;2.25;;
16440;SDS011;8330;-33.858;151.184;2024-03-06T08:17:38;9.30;;;2.08;;
16440;SDS011;8330;-33.858;151.184;2024-03-06T08:20:09;8.80;;;2.60;;
16440;SDS011;8330;-33.858;151.184;2024-03-06T08:22:41;11.60;;;2.40;;
16440;SDS011;8330;-33.858;151.184;2024-03-06T08:25:15;15.63;;;3.05;;
16440;SDS011;8330;-33.858;151.184;2024-03-06T08:27:46;14.63;;;2.50;;
16440;SDS011;8330;-33.858;151.184;2024-03-06T08:30:17;9.15;;;2.13;;
16440;SDS011;8330;-33.858;151.184;2024-03-06T08:32:48;13.38;;;2.60;;
16440;SDS011;8330;-33.858;151.184;2024-03-06T08:35:20;14.68;;;2.92;;
16440;SDS011;8330;-33.858;151.184;2024-03-06T08:37:51;11.73;;;2.40;;
16440;SDS011;8330;-33.858;151.184;2024-03-06T08:40:24;8.48;;;2.10;;
16440;SDS011;8330;-33.858;151.184;2024-03-06T08:42:55;12.35;;;2.45;;
16440;SDS011;8330;-33.858;151.184;2024-03-06T08:45:26;10.98;;;2.67;;
16440;SDS011;8330;-33.858;151.184;2024-03-06T08:48:00;11.25;;;2.30;;
16440;SDS011;8330;-33.858;151.184;2024-03-06T08:50:31;15.82;;;2.60;;
16440;SDS011;8330;-33.858;151.184;2024-03-06T08:53:03;7.82;;;1.88;;
16440;SDS011;8330;-33.858;151.184;2024-03-06T08:55:37;11.50;;;2.67;;
16440;SDS011;8330;-33.858;151.184;2024-03-06T08:58:08;7.18;;;1.95;;
16440;SDS011;8330;-33.858;151.184;2024-03-06T09:00:40;9.23;;;2.47;;
16440;SDS011;8330;-33.858;151.184;2024-03-06T09:03:11;12.65;;;2.47;;
16440;SDS011;8330;-33.858;151.184;2024-03-06T09:05:42;10.18;;;2.22;;
16440;SDS011;8330;-33.858;151.184;2024-03-06T09:08:13;14.18;;;2.75;;
16440;SDS011;8330;-33.858;151.184;2024-03-06T09:10:47;12.38;;;2.60;;
16440;SDS011;8330;-33.858;151.184;2024-03-06T09:13:18;15.48;;;3.00;;
16440;SDS011;8330;-33.858;151.184;2024-03-06T09:15:49;9.82;;;2.30;;
16440;SDS011;8330;-33.858;151.184;2024-03-06T09:18:20;12.95;;;2.65;;
16440;SDS011;8330;-33.858;151.184;2024-03-06T09:20:51;11.05;;;2.53;;
16440;SDS011;8330;-33.858;151.184;2024-03-06T09:23:22;8.20;;;2.00;;
16440;SDS011;8330;-33.858;151.184;2024-03-06T09:25:58;8.85;;;2.15;;
16440;SDS011;8330;-33.858;151.184;2024-03-06T09:28:29;9.75;;;2.25;;
16440;SDS011;8330;-33.858;151.184;2024-03-06T09:31:00;11.05;;;2.45;;
16440;SDS011;8330;-33.858;151.184;2024-03-06T09:33:31;11.98;;;2.28;;
16440;SDS011;8330;-33.858;151.184;2024-03-06T09:36:02;8.98;;;1.98;;
16440;SDS011;8330;-33.858;151.184;2024-03-06T09:38:33;11.55;;;2.33;;
16440;SDS011;8330;-33.858;151.184;2024-03-06T09:41:07;9.23;;;2.17;;
16440;SDS011;8330;-33.858;151.184;2024-03-06T09:43:38;11.82;;;2.60;;
16440;SDS011;8330;-33.858;151.184;2024-03-06T09:46:10;11.80;;;2.50;;
16440;SDS011;8330;-33.858;151.184;2024-03-06T09:48:42;7.05;;;1.77;;
16440;SDS011;8330;-33.858;151.184;2024-03-06T09:51:19;10.48;;;2.38;;
16440;SDS011;8330;-33.858;151.184;2024-03-06T09:53:50;8.77;;;2.30;;
16440;SDS011;8330;-33.858;151.184;2024-03-06T09:56:24;9.77;;;2.10;;
16440;SDS011;8330;-33.858;151.184;2024-03-06T09:58:55;11.48;;;2.35;;
16440;SDS011;8330;-33.858;151.184;2024-03-06T10:01:26;9.52;;;2.15;;
16440;SDS011;8330;-33.858;151.184;2024-03-06T10:03:58;13.63;;;2.70;;
16440;SDS011;8330;-33.858;151.184;2024-03-06T10:06:45;9.95;;;2.70;;
16440;SDS011;8330;-33.858;151.184;2024-03-06T10:09:18;10.75;;;2.92;;
16440;SDS011;8330;-33.858;151.184;2024-03-06T10:11:51;9.55;;;2.30;;
16440;SDS011;8330;-33.858;151.184;2024-03-06T10:14:23;10.13;;;2.45;;
16440;SDS011;8330;-33.858;151.184;2024-03-06T10:16:55;10.90;;;2.35;;
16440;SDS011;8330;-33.858;151.184;2024-03-06T10:19:27;12.07;;;2.28;;
16440;SDS011;8330;-33.858;151.184;2024-03-06T10:21:58;11.25;;;2.60;;
16440;SDS011;8330;-33.858;151.184;2024-03-06T10:24:29;8.50;;;2.35;;
16440;SDS011;8330;-33.858;151.184;2024-03-06T10:27:03;8.40;;;2.35;;
16440;SDS011;8330;-33.858;151.184;2024-03-06T10:29:34;12.38;;;2.60;;
16440;SDS011;8330;-33.858;151.184;2024-03-06T10:32:05;13.82;;;2.70;;
16440;SDS011;8330;-33.858;151.184;2024-03-06T10:34:36;11.75;;;2.45;;
16440;SDS011;8330;-33.858;151.184;2024-03-06T10:37:08;7.25;;;2.30;;
16440;SDS011;8330;-33.858;151.184;2024-03-06T10:39:40;11.02;;;2.30;;
16440;SDS011;8330;-33.858;151.184;2024-03-06T10:42:14;11.77;;;2.25;;
16440;SDS011;8330;-33.858;151.184;2024-03-06T10:44:48;12.15;;;2.42;;
16440;SDS011;8330;-33.858;151.184;2024-03-06T10:47:24;9.05;;;2.20;;
16440;SDS011;8330;-33.858;151.184;2024-03-06T10:49:58;11.43;;;2.60;;
16440;SDS011;8330;-33.858;151.184;2024-03-06T10:52:31;12.20;;;2.67;;
16440;SDS011;8330;-33.858;151.184;2024-03-06T10:55:04;12.55;;;2.90;;
16440;SDS011;8330;-33.858;151.184;2024-03-06T10:57:38;11.88;;;2.80;;
16440;SDS011;8330;-33.858;151.184;2024-03-06T11:00:11;9.80;;;2.92;;
16440;SDS011;8330;-33.858;151.184;2024-03-06T11:02:46;10.45;;;2.13;;
16440;SDS011;8330;-33.858;151.184;2024-03-06T11:05:17;10.48;;;2.70;;
16440;SDS011;8330;-33.858;151.184;2024-03-06T11:07:48;10.65;;;2.85;;
16440;SDS011;8330;-33.858;151.184;2024-03-06T11:10:31;16.88;;;3.30;;
16440;SDS011;8330;-33.858;151.184;2024-03-06T11:13:07;8.63;;;2.33;;
16440;SDS011;8330;-33.858;151.184;2024-03-06T11:15:50;12.68;;;2.97;;
16440;SDS011;8330;-33.858;151.184;2024-03-06T11:21:29;14.40;;;2.60;;
16440;SDS011;8330;-33.858;151.184;2024-03-06T11:26:50;17.40;;;3.28;;
16440;SDS011;8330;-33.858;151.184;2024-03-06T11:30:02;13.75;;;3.20;;
16440;SDS011;8330;-33.858;151.184;2024-03-06T11:32:37;14.02;;;3.05;;
16440;SDS011;8330;-33.858;151.184;2024-03-06T11:35:27;14.88;;;3.10;;
16440;SDS011;8330;-33.858;151.184;2024-03-06T11:37:59;15.48;;;3.17;;
16440;SDS011;8330;-33.858;151.184;2024-03-06T11:40:30;14.60;;;2.92;;
16440;SDS011;8330;-33.858;151.184;2024-03-06T11:46:05;15.60;;;2.95;;
16440;SDS011;8330;-33.858;151.184;2024-03-06T11:48:38;12.98;;;3.00;;
16440;SDS011;8330;-33.858;151.184;2024-03-06T11:51:10;10.65;;;2.67;;
16440;SDS011;8330;-33.858;151.184;2024-03-06T11:53:42;12.55;;;3.08;;
16440;SDS011;8330;-33.858;151.184;2024-03-06T11:56:13;12.65;;;2.75;;
16440;SDS011;8330;-33.858;151.184;2024-03-06T11:58:45;13.98;;;3.25;;
16440;SDS011;8330;-33.858;151.184;2024-03-06T12:01:18;16.73;;;3.38;;
16440;SDS011;8330;-33.858;151.184;2024-03-06T12:03:50;14.25;;;3.25;;
16440;SDS011;8330;-33.858;151.184;2024-03-06T12:06:22;14.30;;;3.00;;
16440;SDS011;8330;-33.858;151.184;2024-03-06T12:08:53;15.68;;;3.75;;
16440;SDS011;8330;-33.858;151.184;2024-03-06T12:11:24;11.13;;;2.92;;
16440;SDS011;8330;-33.858;151.184;2024-03-06T12:13:57;14.70;;;3.22;;
16440;SDS011;8330;-33.858;151.184;2024-03-06T12:16:30;12.25;;;2.80;;
16440;SDS011;8330;-33.858;151.184;2024-03-06T12:19:02;13.73;;;3.10;;
16440;SDS011;8330;-33.858;151.184;2024-03-06T12:21:33;12.38;;;2.60;;
16440;SDS011;8330;-33.858;151.184;2024-03-06T12:24:06;10.80;;;3.03;;
16440;SDS011;8330;-33.858;151.184;2024-03-06T12:26:37;15.52;;;3.30;;
16440;SDS011;8330;-33.858;151.184;2024-03-06T12:29:07;15.30;;;3.58;;
16440;SDS011;8330;-33.858;151.184;2024-03-06T12:31:41;14.15;;;3.45;;
16440;SDS011;8330;-33.858;151.184;2024-03-06T12:34:13;14.70;;;2.88;;
16440;SDS011;8330;-33.858;151.184;2024-03-06T12:36:45;12.57;;;3.05;;
16440;SDS011;8330;-33.858;151.184;2024-03-06T12:39:17;14.95;;;3.20;;
16440;SDS011;8330;-33.858;151.184;2024-03-06T12:41:49;16.17;;;3.20;;
16440;SDS011;8330;-33.858;151.184;2024-03-06T12:44:20;14.02;;;3.20;;
16440;SDS011;8330;-33.858;151.184;2024-03-06T12:46:53;13.10;;;2.97;;
16440;SDS011;8330;-33.858;151.184;2024-03-06T12:49:24;14.25;;;3.13;;
16440;SDS011;8330;-33.858;151.184;2024-03-06T12:51:55;15.02;;;3.65;;
16440;SDS011;8330;-33.858;151.184;2024-03-06T12:54:26;11.35;;;2.90;;
16440;SDS011;8330;-33.858;151.184;2024-03-06T12:56:57;12.25;;;2.70;;
16440;SDS011;8330;-33.858;151.184;2024-03-06T12:59:29;14.95;;;3.90;;
16440;SDS011;8330;-33.858;151.184;2024-03-06T13:02:02;16.63;;;3.45;;
16440;SDS011;8330;-33.858;151.184;2024-03-06T13:04:33;16.80;;;3.10;;
16440;SDS011;8330;-33.858;151.184;2024-03-06T13:07:04;12.38;;;3.08;;
16440;SDS011;8330;-33.858;151.184;2024-03-06T13:09:36;10.45;;;3.08;;
16440;SDS011;8330;-33.858;151.184;2024-03-06T13:12:07;16.25;;;2.95;;
16440;SDS011;8330;-33.858;151.184;2024-03-06T13:14:38;11.05;;;2.58;;
16440;SDS011;8330;-33.858;151.184;2024-03-06T13:17:11;13.48;;;3.30;;
16440;SDS011;8330;-33.858;151.184;2024-03-06T13:19:42;15.20;;;3.42;;
16440;SDS011;8330;-33.858;151.184;2024-03-06T13:22:14;13.88;;;3.20;;
16440;SDS011;8330;-33.858;151.184;2024-03-06T13:24:45;12.30;;;2.95;;
16440;SDS011;8330;-33.858;151.184;2024-03-06T13:27:17;11.75;;;2.65;;
16440;SDS011;8330;-33.858;151.184;2024-03-06T13:29:48;12.55;;;2.97;;
16440;SDS011;8330;-33.858;151.184;2024-03-06T13:32:21;14.13;;;3.00;;
16440;SDS011;8330;-33.858;151.184;2024-03-06T13:34:52;13.68;;;3.25;;
16440;SDS011;8330;-33.858;151.184;2024-03-06T13:37:23;13.60;;;3.50;;
16440;SDS011;8330;-33.858;151.184;2024-03-06T13:39:54;17.13;;;3.42;;
16440;SDS011;8330;-33.858;151.184;2024-03-06T13:42:27;14.35;;;3.42;;
16440;SDS011;8330;-33.858;151.184;2024-03-06T13:44:58;11.20;;;2.92;;
16440;SDS011;8330;-33.858;151.184;2024-03-06T13:47:31;14.68;;;3.08;;
16440;SDS011;8330;-33.858;151.184;2024-03-06T13:50:02;13.85;;;3.08;;
16440;SDS011;8330;-33.858;151.184;2024-03-06T13:52:34;12.85;;;3.05;;
16440;SDS011;8330;-33.858;151.184;2024-03-06T13:55:06;14.57;;;3.20;;
16440;SDS011;8330;-33.858;151.184;2024-03-06T13:57:40;10.23;;;2.90;;
16440;SDS011;8330;-33.858;151.184;2024-03-06T14:00:11;11.77;;;3.00;;
16440;SDS011;8330;-33.858;151.184;2024-03-06T14:02:47;12.25;;;3.28;;
16440;SDS011;8330;-33.858;151.184;2024-03-06T14:05:18;11.65;;;2.90;;
16440;SDS011;8330;-33.858;151.184;2024-03-06T14:07:51;15.88;;;2.90;;
16440;SDS011;8330;-33.858;151.184;2024-03-06T14:10:23;13.05;;;2.90;;
16440;SDS011;8330;-33.858;151.184;2024-03-06T14:12:54;11.27;;;2.78;;
16440;SDS011;8330;-33.858;151.184;2024-03-06T14:15:25;10.98;;;2.50;;
16440;SDS011;8330;-33.858;151.184;2024-03-06T14:17:58;11.27;;;2.92;;
16440;SDS011;8330;-33.858;151.184;2024-03-06T14:20:33;9.35;;;3.05;;
16440;SDS011;8330;-33.858;151.184;2024-03-06T14:23:05;11.70;;;2.30;;
16440;SDS011;8330;-33.858;151.184;2024-03-06T14:25:36;10.18;;;2.53;;
16440;SDS011;8330;-33.858;151.184;2024-03-06T14:28:07;13.88;;;2.95;;
16440;SDS011;8330;-33.858;151.184;2024-03-06T14:30:38;9.50;;;2.60;;
16440;SDS011;8330;-33.858;151.184;2024-03-06T14:33:12;9.93;;;2.47;;
16440;SDS011;8330;-33.858;151.184;2024-03-06T14:35:43;14.25;;;3.17;;
16440;SDS011;8330;-33.858;151.184;2024-03-06T14:38:15;6.80;;;2.50;;
16440;SDS011;8330;-33.858;151.184;2024-03-06T14:40:46;10.32;;;2.40;;
16440;SDS011;8330;-33.858;151.184;2024-03-06T14:43:17;11.63;;;2.78;;
16440;SDS011;8330;-33.858;151.184;2024-03-06T14:45:48;9.00;;;2.65;;
16440;SDS011;8330;-33.858;151.184;2024-03-06T14:48:21;10.77;;;2.97;;
16440;SDS011;8330;-33.858;151.184;2024-03-06T14:50:52;12.48;;;2.78;;
16440;SDS011;8330;-33.858;151.184;2024-03-06T14:53:23;9.15;;;2.53;;